This is the latest recevied weather packets stored in our database for station/object OM8AKX-12. If no packets are shown the sender has not sent any weather packets the latest 10 day(s).
| Time | Temp. | Humidity | Pressure | Rain* | Wind** | Luminosity | Snow |
|---|---|---|---|---|---|---|---|
| 1777627484 | 16.67° C | 29% | 1021.5 hPa | - | - | - | - |
| 1777626584 | 16.11° C | 29% | 1021.5 hPa | - | - | - | - |
| 1777625684 | 15.56° C | 28% | 1021.7 hPa | - | - | - | - |
| 1777624786 | 13.89° C | 29% | 1021.9 hPa | - | - | - | - |
| 1777623883 | 13.89° C | 27% | 1021.9 hPa | - | - | - | - |
| 1777622085 | 13.33° C | 25% | 1022.1 hPa | - | - | - | - |
| 1777621190 | 12.22° C | 24% | 1022.2 hPa | - | - | - | - |
| 1777620283 | 11.67° C | 25% | 1022.3 hPa | - | - | - | - |
| 1777619383 | 11.11° C | 26% | 1022.4 hPa | - | - | - | - |
| 1777618483 | 12.22° C | 25% | 1022.2 hPa | - | - | - | - |
| 1777617584 | 10.56° C | 31% | 1022.3 hPa | - | - | - | - |
| 1777616683 | 11.67° C | 35% | 1022.4 hPa | - | - | - | - |
| 1777613984 | 6.11° C | 53% | 1022.6 hPa | - | - | - | - |
| 1777613089 | 5° C | 57% | 1022.6 hPa | - | - | - | - |
| 1777612185 | 4.44° C | 59% | 1022.5 hPa | - | - | - | - |
| 1777610391 | 2.22° C | 68% | 1022.5 hPa | - | - | - | - |
| 1777609489 | 1.67° C | 70% | 1022.5 hPa | - | - | - | - |
| 1777607682 | 0° C | 76% | 1022.6 hPa | - | - | - | - |
| 1777606789 | -1.11° C | 79% | 1022.6 hPa | - | - | - | - |
| 1777605883 | -1.67° C | 80% | 1022.6 hPa | - | - | - | - |
| 1777604983 | -2.22° C | 79% | 1022.6 hPa | - | - | - | - |
| 1777604082 | -1.67° C | 77% | 1022.7 hPa | - | - | - | - |
| 1777603183 | -1.67° C | 76% | 1022.7 hPa | - | - | - | - |
| 1777602286 | -1.67° C | 75% | 1022.8 hPa | - | - | - | - |
| 1777601386 | -1.11° C | 73% | 1022.6 hPa | - | - | - | - |
* Rain since midnight (hover to see other rain measurements)
** Current wind speed in m/s (hover to see current wind gust speed)